createdAt,value
2023-02-19T00:00:43.641Z,11.93512
2023-02-19T00:01:53.286Z,11.93512
2023-02-19T00:03:01.936Z,11.93512
2023-02-19T00:04:10.599Z,11.94519
2023-02-19T00:05:19.361Z,11.965332
2023-02-19T00:06:27.014Z,11.94519
2023-02-19T00:07:36.665Z,11.914978
2023-02-19T00:08:45.331Z,11.914978
2023-02-19T00:09:54.034Z,11.94519
2023-02-19T00:11:02.681Z,11.93512
2023-02-19T00:12:11.344Z,11.93512
2023-02-19T00:13:19.989Z,11.94519
2023-02-19T00:14:29.668Z,11.93512
2023-02-19T00:15:37.355Z,11.94519
2023-02-19T00:16:47.030Z,11.93512
2023-02-19T00:17:56.654Z,11.93512
2023-02-19T00:19:04.299Z,11.904907
2023-02-19T00:20:13.972Z,11.904907
2023-02-19T00:21:21.612Z,11.884766
2023-02-19T00:22:31.306Z,11.884766
2023-02-19T00:23:40.962Z,11.884766
2023-02-19T00:24:49.313Z,11.884766
2023-02-19T00:26:03.260Z,11.874695
2023-02-19T00:27:08.941Z,11.834412
2023-02-19T00:28:17.585Z,11.81427
2023-02-19T00:29:27.243Z,11.81427
2023-02-19T00:30:35.968Z,11.804199
2023-02-19T00:31:44.669Z,11.804199
2023-02-19T00:32:54.287Z,11.784058
2023-02-19T00:34:03.917Z,11.784058
2023-02-19T00:35:13.592Z,11.784058
2023-02-19T00:36:22.257Z,11.784058
2023-02-19T00:37:30.002Z,11.81427
2023-02-19T00:38:39.625Z,11.834412
2023-02-19T00:39:47.274Z,11.834412
2023-02-19T00:40:55.939Z,11.864624
2023-02-19T00:42:05.607Z,11.844482
2023-02-19T00:43:14.259Z,11.844482
2023-02-19T00:44:23.919Z,11.81427
2023-02-19T00:45:32.584Z,11.834412
2023-02-19T00:46:40.368Z,11.834412
2023-02-19T00:47:49.896Z,11.844482
2023-02-19T00:48:58.621Z,11.834412
2023-02-19T00:50:08.272Z,11.844482
2023-02-19T00:51:17.926Z,11.834412
2023-02-19T00:52:25.574Z,11.81427
2023-02-19T00:53:35.267Z,11.834412
2023-02-19T00:54:43.929Z,11.834412
2023-02-19T00:55:52.627Z,11.834412
2023-02-19T00:57:02.289Z,11.844482
2023-02-19T00:58:09.935Z,11.834412
2023-02-19T00:59:19.599Z,11.81427
2023-02-19T01:00:29.279Z,11.81427
2023-02-19T01:01:36.999Z,11.81427
2023-02-19T01:02:46.596Z,11.81427
2023-02-19T01:03:56.262Z,11.834412
2023-02-19T01:05:04.939Z,11.834412
2023-02-19T01:06:14.655Z,11.81427
2023-02-19T01:07:22.302Z,11.804199
2023-02-19T01:08:30.966Z,11.81427
2023-02-19T01:09:40.616Z,11.804199
2023-02-19T01:10:48.368Z,11.804199
2023-02-19T01:11:57.019Z,11.773987
2023-02-19T01:13:05.668Z,11.784058
2023-02-19T01:14:15.334Z,11.804199
2023-02-19T01:15:24.004Z,11.804199
2023-02-19T01:16:31.652Z,11.804199
2023-02-19T01:17:40.305Z,11.784058
2023-02-19T01:18:50.970Z,11.784058
2023-02-19T01:19:59.584Z,11.773987
2023-02-19T01:21:09.800Z,11.753845
2023-02-19T01:22:18.982Z,11.733704
2023-02-19T01:23:26.626Z,11.723633
2023-02-19T01:24:36.303Z,11.723633
2023-02-19T01:25:44.975Z,11.703491
2023-02-19T01:26:53.620Z,11.723633
2023-02-19T01:28:03.277Z,11.703491
2023-02-19T01:29:12.933Z,11.703491
2023-02-19T01:30:21.596Z,11.69342
2023-02-19T01:31:31.393Z,11.69342
2023-02-19T01:32:40.912Z,11.69342
2023-02-19T01:33:50.568Z,11.68335
2023-02-19T01:35:00.229Z,11.663208
2023-02-19T01:36:08.892Z,11.653137
2023-02-19T01:37:18.567Z,11.653137
2023-02-19T01:38:28.203Z,11.622925
2023-02-19T01:39:36.846Z,11.622925
2023-02-19T01:40:46.563Z,11.602783
2023-02-19T01:41:55.213Z,11.622925
2023-02-19T01:43:03.871Z,11.602783
2023-02-19T01:44:13.522Z,11.602783
2023-02-19T01:45:21.164Z,11.622925
2023-02-19T01:46:30.884Z,11.602783
2023-02-19T01:47:39.507Z,11.632996
2023-02-19T01:48:48.154Z,11.622925
2023-02-19T01:49:57.813Z,11.653137
2023-02-19T01:51:06.482Z,11.632996
2023-02-19T01:52:16.133Z,11.632996
2023-02-19T01:53:24.805Z,11.653137
2023-02-19T01:54:34.440Z,11.653137
2023-02-19T01:55:44.123Z,11.653137
2023-02-19T01:56:52.814Z,11.632996
2023-02-19T01:58:00.451Z,11.622925
2023-02-19T01:59:10.132Z,11.632996
2023-02-19T02:00:17.790Z,11.622925
2023-02-19T02:01:27.499Z,11.602783
2023-02-19T02:02:38.144Z,11.572571
2023-02-19T02:03:45.802Z,11.572571
2023-02-19T02:04:55.443Z,11.572571
2023-02-19T02:06:02.166Z,11.572571
2023-02-19T02:07:11.827Z,11.572571
2023-02-19T02:08:19.470Z,11.552429
2023-02-19T02:09:28.166Z,11.542358
2023-02-19T02:10:37.790Z,11.522217
2023-02-19T02:11:45.480Z,11.512146
2023-02-19T02:12:55.122Z,11.481934
2023-02-19T02:14:04.787Z,11.44165
2023-02-19T02:15:12.422Z,11.371155
2023-02-19T02:16:22.146Z,11.351013
2023-02-19T02:17:31.785Z,11.300659
2023-02-19T02:18:40.426Z,11.270447
2023-02-19T02:19:50.090Z,11.260376
2023-02-19T02:20:58.757Z,11.270447
2023-02-19T02:22:08.433Z,11.230164
2023-02-19T02:23:17.094Z,11.149597
2023-02-19T02:24:24.739Z,11.069031
2023-02-19T02:25:34.438Z,10.93811
2023-02-19T02:26:44.084Z,10.837402
2023-02-19T02:27:52.747Z,10.736694
2023-02-19T02:29:02.392Z,10.635986
2023-02-19T02:30:10.094Z,10.55542
2023-02-19T02:31:18.821Z,10.494995
2023-02-19T02:32:27.447Z,10.4245
2023-02-19T02:33:35.106Z,10.414429
2023-02-19T02:34:44.774Z,10.404358
2023-02-19T02:35:52.434Z,10.354004
2023-02-19T02:37:01.104Z,10.313721
2023-02-19T02:38:10.773Z,10.313721
2023-02-19T02:39:19.420Z,10.283508
2023-02-19T02:40:29.067Z,10.253296
2023-02-19T02:41:39.749Z,10.192871
2023-02-19T02:42:47.402Z,10.172729
2023-02-19T02:43:57.066Z,10.162659
2023-02-19T02:45:05.719Z,10.132446
2023-02-19T02:46:14.357Z,10.102234
2023-02-19T02:47:24.045Z,10.092163
2023-02-19T02:48:31.695Z,10.05188
2023-02-19T02:49:41.356Z,9.991455
2023-02-19T02:50:50.018Z,9.971313
2023-02-19T02:51:58.696Z,9.941101
2023-02-19T02:53:08.397Z,9.870605
2023-02-19T02:54:17.045Z,9.820251
2023-02-19T02:55:25.696Z,9.769897
2023-02-19T02:56:35.370Z,9.719543
2023-02-19T02:57:45.022Z,9.659119
2023-02-19T02:58:54.686Z,9.638977
2023-02-19T03:00:04.338Z,9.588623
2023-02-19T03:01:12.332Z,9.558411
2023-02-19T03:02:21.715Z,9.508057
2023-02-19T03:03:30.353Z,9.497986
2023-02-19T03:04:39.006Z,9.437561
2023-02-19T03:05:48.685Z,9.387207
2023-02-19T03:06:56.364Z,9.356995
2023-02-19T03:08:06.012Z,9.356995
2023-02-19T03:09:14.651Z,9.356995
2023-02-19T03:10:23.300Z,9.367065
2023-02-19T03:11:33.970Z,9.336853
2023-02-19T03:12:42.622Z,9.356995
2023-02-19T03:13:51.266Z,9.336853
2023-02-19T03:15:00.939Z,9.306641
2023-02-19T03:16:08.619Z,9.276428
2023-02-19T03:17:18.297Z,9.246216
2023-02-19T03:18:28.034Z,9.226074
2023-02-19T03:19:37.699Z,9.17572
2023-02-19T03:20:47.353Z,9.155579
2023-02-19T03:21:56.034Z,9.125366
2023-02-19T03:23:05.695Z,9.095154
2023-02-19T03:24:15.355Z,9.075012
2023-02-19T03:25:22.016Z,9.0448
2023-02-19T03:26:31.662Z,9.004517
2023-02-19T03:27:41.342Z,8.954163
2023-02-19T03:28:48.986Z,8.974304
2023-02-19T03:29:58.860Z,8.92395
2023-02-19T03:31:07.387Z,8.944092
2023-02-19T03:32:17.149Z,8.893738
2023-02-19T03:33:26.791Z,8.883667
2023-02-19T03:34:35.435Z,8.873596
2023-02-19T03:35:45.110Z,8.853455
2023-02-19T03:36:54.821Z,8.843384
2023-02-19T03:38:03.488Z,8.823242
2023-02-19T03:39:12.132Z,8.813171
2023-02-19T03:40:19.789Z,8.823242
2023-02-19T03:41:28.430Z,8.79303
2023-02-19T03:42:38.110Z,8.79303
2023-02-19T03:43:45.757Z,8.79303
2023-02-19T03:44:55.397Z,8.762817
2023-02-19T03:46:04.070Z,8.762817
2023-02-19T03:47:11.707Z,8.762817
2023-02-19T03:48:21.360Z,8.742676
2023-02-19T03:49:29.009Z,8.742676
2023-02-19T03:50:38.660Z,8.702393
2023-02-19T03:51:48.321Z,8.692322
2023-02-19T03:52:57.985Z,8.692322
2023-02-19T03:54:07.642Z,8.641968
2023-02-19T03:55:16.288Z,8.641968
2023-02-19T03:56:23.940Z,8.631897
2023-02-19T03:57:33.620Z,8.611755
2023-02-19T03:58:41.267Z,8.631897
2023-02-19T03:59:50.920Z,8.611755
2023-02-19T04:01:00.580Z,8.611755
2023-02-19T04:02:10.272Z,8.601685
2023-02-19T04:03:19.922Z,8.581543
2023-02-19T04:04:29.593Z,8.601685
2023-02-19T04:05:39.242Z,8.601685
2023-02-19T04:06:48.892Z,8.581543
2023-02-19T04:07:57.575Z,8.601685
2023-02-19T04:09:07.242Z,8.611755
2023-02-19T04:10:16.900Z,8.631897
2023-02-19T04:11:25.540Z,8.611755
2023-02-19T04:12:35.216Z,8.581543
2023-02-19T04:13:42.868Z,8.581543
2023-02-19T04:14:52.539Z,8.561401
2023-02-19T04:16:01.223Z,8.581543
2023-02-19T04:17:08.855Z,8.581543
2023-02-19T04:18:18.536Z,8.561401
2023-02-19T04:19:27.192Z,8.581543
2023-02-19T04:20:35.829Z,8.611755
2023-02-19T04:21:44.471Z,8.601685
2023-02-19T04:22:53.151Z,8.581543
2023-02-19T04:24:02.811Z,8.601685
2023-02-19T04:25:11.498Z,8.601685
2023-02-19T04:26:21.151Z,8.581543
2023-02-19T04:27:29.823Z,8.561401
2023-02-19T04:28:37.465Z,8.561401
2023-02-19T04:29:46.106Z,8.561401
2023-02-19T04:30:55.871Z,8.581543
2023-02-19T04:32:02.466Z,8.561401
2023-02-19T04:33:12.072Z,8.551331
2023-02-19T04:34:21.731Z,8.531189
2023-02-19T04:35:29.381Z,8.551331
2023-02-19T04:36:39.037Z,8.531189
2023-02-19T04:37:47.717Z,8.551331
2023-02-19T04:38:57.387Z,8.551331
2023-02-19T04:40:06.042Z,8.531189
2023-02-19T04:41:13.700Z,8.531189
2023-02-19T04:42:23.336Z,8.551331
2023-02-19T04:43:32.023Z,8.551331
2023-02-19T04:44:40.660Z,8.581543
2023-02-19T04:45:49.342Z,8.561401
2023-02-19T04:46:57.977Z,8.581543
2023-02-19T04:48:06.670Z,8.581543
2023-02-19T04:49:16.330Z,8.581543
2023-02-19T04:50:23.978Z,8.561401
2023-02-19T04:51:34.649Z,8.561401
2023-02-19T04:52:43.435Z,8.531189
2023-02-19T04:53:51.070Z,8.581543
2023-02-19T04:55:00.747Z,8.601685
2023-02-19T04:56:09.409Z,8.551331
2023-02-19T04:57:19.092Z,8.561401
2023-02-19T04:58:28.768Z,8.561401
2023-02-19T04:59:36.474Z,8.581543
2023-02-19T05:00:46.176Z,8.561401
2023-02-19T05:01:54.981Z,8.551331
2023-02-19T05:03:03.532Z,8.581543
2023-02-19T05:04:13.237Z,8.581543
2023-02-19T05:05:21.878Z,8.611755
2023-02-19T05:06:31.536Z,8.631897
2023-02-19T05:07:41.233Z,8.662109
2023-02-19T05:08:50.914Z,8.67218
2023-02-19T05:10:00.563Z,8.67218
2023-02-19T05:11:09.561Z,8.692322
2023-02-19T05:12:17.881Z,8.712463
2023-02-19T05:13:28.542Z,8.67218
2023-02-19T05:14:36.173Z,8.692322
2023-02-19T05:15:44.821Z,8.662109
2023-02-19T05:16:54.464Z,8.692322
2023-02-19T05:18:04.144Z,8.732605
2023-02-19T05:19:13.809Z,8.742676
2023-02-19T05:20:22.448Z,8.762817
2023-02-19T05:21:31.118Z,8.79303
2023-02-19T05:22:40.765Z,8.782959
2023-02-19T05:23:49.459Z,8.782959
2023-02-19T05:24:58.130Z,8.762817
2023-02-19T05:26:07.746Z,8.79303
2023-02-19T05:27:15.388Z,8.843384
2023-02-19T05:28:25.173Z,8.873596
2023-02-19T05:29:33.816Z,8.873596
2023-02-19T05:30:41.450Z,8.873596
2023-02-19T05:31:51.168Z,8.873596
2023-02-19T05:32:58.736Z,8.873596
2023-02-19T05:34:08.405Z,8.883667
2023-02-19T05:35:18.047Z,8.893738
2023-02-19T05:36:27.693Z,8.944092
2023-02-19T05:37:37.337Z,8.954163
2023-02-19T05:38:47.008Z,8.954163
2023-02-19T05:39:54.642Z,8.994446
2023-02-19T05:41:04.296Z,8.974304
2023-02-19T05:42:11.946Z,8.974304
2023-02-19T05:43:20.684Z,8.954163
2023-02-19T05:44:30.356Z,8.954163
2023-02-19T05:45:39.020Z,8.954163
2023-02-19T05:46:47.664Z,8.954163
2023-02-19T05:47:56.312Z,8.994446
2023-02-19T05:49:04.973Z,9.004517
2023-02-19T05:50:14.658Z,9.004517
2023-02-19T05:51:24.308Z,9.024658
2023-02-19T05:52:32.969Z,9.004517
2023-02-19T05:53:42.690Z,9.0448
2023-02-19T05:54:52.317Z,9.034729
2023-02-19T05:56:01.978Z,9.0448
2023-02-19T05:57:12.649Z,9.064941
2023-02-19T05:58:20.293Z,9.075012
2023-02-19T05:59:29.972Z,9.105225
2023-02-19T06:00:37.629Z,9.095154
2023-02-19T06:01:47.283Z,9.075012
2023-02-19T06:02:57.013Z,9.064941
2023-02-19T06:04:05.661Z,9.105225
2023-02-19T06:05:15.250Z,9.125366
2023-02-19T06:06:23.903Z,9.105225
2023-02-19T06:07:33.537Z,9.135437
2023-02-19T06:08:42.220Z,9.155579
2023-02-19T06:09:49.882Z,9.185791
2023-02-19T06:10:59.661Z,9.205933
2023-02-19T06:12:08.307Z,9.216003
2023-02-19T06:13:17.873Z,9.205933
2023-02-19T06:14:26.616Z,9.205933
2023-02-19T06:15:36.289Z,9.205933
2023-02-19T06:16:45.939Z,9.205933
2023-02-19T06:17:54.591Z,9.185791
2023-02-19T06:19:02.257Z,9.185791
2023-02-19T06:20:10.921Z,9.17572
2023-02-19T06:21:19.564Z,9.185791
2023-02-19T06:22:29.216Z,9.226074
2023-02-19T06:23:38.895Z,9.246216
2023-02-19T06:24:46.576Z,9.256287
2023-02-19T06:25:56.242Z,9.276428
2023-02-19T06:27:05.893Z,9.286499
2023-02-19T06:28:13.540Z,9.286499
2023-02-19T06:29:23.215Z,9.286499
2023-02-19T06:30:30.923Z,9.306641
2023-02-19T06:31:40.638Z,9.356995
2023-02-19T06:32:50.192Z,9.397278
2023-02-19T06:33:57.887Z,9.407349
2023-02-19T06:35:07.536Z,9.42749
2023-02-19T06:36:17.245Z,9.42749
2023-02-19T06:37:24.839Z,9.457703
2023-02-19T06:38:34.533Z,9.457703
2023-02-19T06:39:43.228Z,9.437561
2023-02-19T06:40:51.920Z,9.457703
2023-02-19T06:42:01.568Z,9.457703
2023-02-19T06:43:10.235Z,9.477844
2023-02-19T06:44:19.908Z,9.477844
2023-02-19T06:45:28.571Z,9.477844
2023-02-19T06:46:37.267Z,9.477844
2023-02-19T06:47:46.890Z,9.477844
2023-02-19T06:48:56.560Z,9.477844
2023-02-19T06:50:06.241Z,9.508057
2023-02-19T06:51:15.915Z,9.54834
2023-02-19T06:52:24.545Z,9.54834
2023-02-19T06:53:33.194Z,9.578552
2023-02-19T06:54:41.875Z,9.558411
2023-02-19T06:55:50.546Z,9.578552
2023-02-19T06:57:00.268Z,9.608765
2023-02-19T06:58:07.949Z,9.608765
2023-02-19T06:59:17.637Z,9.618835
2023-02-19T07:00:27.336Z,9.649048
2023-02-19T07:01:35.976Z,9.649048
2023-02-19T07:02:45.629Z,9.638977
2023-02-19T07:03:55.282Z,9.659119
2023-02-19T07:05:03.944Z,9.689331
2023-02-19T07:06:13.608Z,9.739685
2023-02-19T07:07:23.257Z,9.790039
2023-02-19T07:08:32.914Z,9.80011
2023-02-19T07:09:42.604Z,9.830322
2023-02-19T07:10:50.255Z,9.860535
2023-02-19T07:11:59.909Z,9.870605
2023-02-19T07:13:08.548Z,9.910889
2023-02-19T07:14:16.325Z,9.920959
2023-02-19T07:15:25.006Z,9.941101
2023-02-19T07:16:32.745Z,9.971313
2023-02-19T07:17:42.304Z,9.971313
2023-02-19T07:18:50.965Z,9.981384
2023-02-19T07:20:00.646Z,9.991455
2023-02-19T07:21:10.638Z,9.991455
2023-02-19T07:22:19.934Z,10.011597
2023-02-19T07:23:27.583Z,9.991455
2023-02-19T07:24:37.289Z,9.991455
2023-02-19T07:25:46.956Z,9.971313
2023-02-19T07:26:56.623Z,9.981384
2023-02-19T07:28:06.301Z,9.981384
2023-02-19T07:29:13.939Z,9.951172
2023-02-19T07:30:23.649Z,9.951172
2023-02-19T07:31:32.385Z,9.941101
2023-02-19T07:32:40.967Z,9.910889
2023-02-19T07:33:50.634Z,9.910889
2023-02-19T07:34:59.339Z,9.910889
2023-02-19T07:36:07.978Z,9.890747
2023-02-19T07:37:17.629Z,9.910889
2023-02-19T07:38:26.310Z,9.920959
2023-02-19T07:39:35.933Z,9.941101
2023-02-19T07:40:44.607Z,9.951172
2023-02-19T07:41:54.276Z,9.941101
2023-02-19T07:43:03.943Z,9.941101
2023-02-19T07:44:11.592Z,9.971313
2023-02-19T07:45:21.253Z,9.971313
2023-02-19T07:46:31.017Z,9.951172
2023-02-19T07:47:40.673Z,9.941101
2023-02-19T07:48:50.314Z,9.941101
2023-02-19T07:49:58.019Z,9.910889
2023-02-19T07:51:06.711Z,9.870605
2023-02-19T07:52:17.356Z,9.860535
2023-02-19T07:53:25.012Z,9.870605
2023-02-19T07:54:33.667Z,9.890747
2023-02-19T07:55:43.387Z,9.890747
2023-02-19T07:56:52.036Z,9.920959
2023-02-19T07:58:01.709Z,9.951172
2023-02-19T07:59:10.353Z,9.971313
2023-02-19T08:00:20.041Z,9.971313
2023-02-19T08:01:28.756Z,9.981384
2023-02-19T08:02:36.353Z,10.021667
2023-02-19T08:03:45.055Z,10.05188
2023-02-19T08:04:54.778Z,10.05188
2023-02-19T08:06:03.486Z,10.041809
2023-02-19T08:07:13.149Z,10.041809
2023-02-19T08:08:22.835Z,10.05188
2023-02-19T08:09:32.500Z,10.092163
2023-02-19T08:10:41.250Z,10.072021
2023-02-19T08:11:48.928Z,10.072021
2023-02-19T08:12:58.580Z,10.05188
2023-02-19T08:14:07.267Z,10.05188
2023-02-19T08:15:15.955Z,10.041809
2023-02-19T08:16:37.168Z,10.072021
2023-02-19T08:17:36.278Z,10.072021
2023-02-19T08:18:45.946Z,10.072021
2023-02-19T08:19:54.591Z,10.041809
2023-02-19T08:21:02.297Z,10.021667
2023-02-19T08:22:10.959Z,10.041809
2023-02-19T08:23:18.632Z,10.072021
2023-02-19T08:24:28.274Z,10.102234
2023-02-19T08:25:37.963Z,10.122375
2023-02-19T08:26:47.639Z,10.132446
2023-02-19T08:27:57.274Z,10.162659
2023-02-19T08:29:05.919Z,10.132446
2023-02-19T08:30:13.646Z,10.162659
2023-02-19T08:31:23.523Z,10.172729
2023-02-19T08:32:32.002Z,10.192871
2023-02-19T08:33:40.723Z,10.192871
2023-02-19T08:34:50.382Z,10.202942
2023-02-19T08:35:58.080Z,10.233154
2023-02-19T08:37:07.755Z,10.283508
2023-02-19T08:38:17.418Z,10.283508
2023-02-19T08:39:26.094Z,10.30365
2023-02-19T08:40:35.758Z,10.30365
2023-02-19T08:41:44.463Z,10.313721
2023-02-19T08:42:54.139Z,10.313721
2023-02-19T08:44:03.821Z,10.30365
2023-02-19T08:45:12.479Z,10.333862
2023-02-19T08:46:22.319Z,10.374146
2023-02-19T08:47:30.933Z,10.354004
2023-02-19T08:48:39.602Z,10.343933
2023-02-19T08:49:49.269Z,10.343933
2023-02-19T08:50:56.961Z,10.354004
2023-02-19T08:52:06.636Z,10.354004
2023-02-19T08:53:16.312Z,10.343933
2023-02-19T08:54:23.964Z,10.374146
2023-02-19T08:55:33.613Z,10.374146
2023-02-19T08:56:41.283Z,10.374146
2023-02-19T08:57:50.675Z,10.333862
2023-02-19T08:58:59.609Z,10.333862
2023-02-19T09:00:08.240Z,10.343933
2023-02-19T09:01:16.938Z,10.313721
2023-02-19T09:02:26.600Z,10.313721
2023-02-19T09:03:34.312Z,10.283508
2023-02-19T09:04:42.952Z,10.313721
2023-02-19T09:05:49.631Z,10.263367
2023-02-19T09:06:58.307Z,10.223083
2023-02-19T09:08:07.977Z,10.223083
2023-02-19T09:09:15.630Z,10.223083
2023-02-19T09:10:24.338Z,10.223083
2023-02-19T09:11:34.068Z,10.223083
2023-02-19T09:12:41.786Z,10.223083
2023-02-19T09:13:50.457Z,10.223083
2023-02-19T09:14:59.097Z,10.202942
2023-02-19T09:16:08.873Z,10.223083
2023-02-19T09:17:18.521Z,10.202942
2023-02-19T09:18:27.187Z,10.223083
2023-02-19T09:19:35.856Z,10.253296
2023-02-19T09:20:45.535Z,10.283508
2023-02-19T09:21:54.220Z,10.253296
2023-02-19T09:23:03.872Z,10.283508
2023-02-19T09:24:12.558Z,10.253296
2023-02-19T09:25:20.244Z,10.192871
2023-02-19T09:26:29.978Z,10.172729
2023-02-19T09:27:39.668Z,10.172729
2023-02-19T09:28:48.352Z,10.162659
2023-02-19T09:29:58.019Z,10.202942
2023-02-19T09:31:06.777Z,10.233154
2023-02-19T09:32:18.783Z,10.202942
2023-02-19T09:33:26.070Z,10.192871
2023-02-19T09:34:33.715Z,10.172729
2023-02-19T09:35:43.376Z,10.172729
2023-02-19T09:36:52.070Z,10.152588
2023-02-19T09:38:00.733Z,10.122375
2023-02-19T09:39:10.407Z,10.162659
2023-02-19T09:40:18.083Z,10.202942
2023-02-19T09:41:27.769Z,10.253296
2023-02-19T09:42:36.440Z,10.343933
2023-02-19T09:43:47.736Z,10.484924
2023-02-19T09:44:57.453Z,10.55542
2023-02-19T09:46:06.132Z,10.635986
2023-02-19T09:47:14.771Z,10.635986
2023-02-19T09:48:24.469Z,10.605774
2023-02-19T09:49:32.125Z,10.484924
2023-02-19T09:50:41.781Z,10.354004
2023-02-19T09:51:51.487Z,10.253296
2023-02-19T09:53:00.157Z,10.162659
2023-02-19T09:54:09.810Z,10.072021
2023-02-19T09:55:18.464Z,9.981384
2023-02-19T09:56:28.138Z,9.951172
2023-02-19T09:57:36.826Z,9.941101
2023-02-19T09:58:45.579Z,9.860535
2023-02-19T09:59:55.230Z,9.840393
2023-02-19T10:01:03.947Z,9.830322
2023-02-19T10:02:13.746Z,9.860535
2023-02-19T10:03:23.418Z,9.840393
2023-02-19T10:04:33.082Z,9.910889
2023-02-19T10:05:42.755Z,9.971313
2023-02-19T10:06:51.451Z,10.021667
2023-02-19T10:08:00.124Z,10.05188
2023-02-19T10:09:09.798Z,10.092163
2023-02-19T10:10:17.867Z,10.132446
2023-02-19T10:11:27.185Z,10.152588
2023-02-19T10:12:36.856Z,10.162659
2023-02-19T10:13:44.517Z,10.162659
2023-02-19T10:14:54.180Z,10.223083
2023-02-19T10:16:01.894Z,10.233154
2023-02-19T10:17:11.515Z,10.223083
2023-02-19T10:18:21.167Z,10.343933
2023-02-19T10:19:30.826Z,10.464783
2023-02-19T10:20:40.610Z,10.585632
2023-02-19T10:21:50.268Z,10.706482
2023-02-19T10:22:58.935Z,10.80719
2023-02-19T10:24:08.588Z,10.968323
2023-02-19T10:25:16.238Z,11.169739
2023-02-19T10:26:24.897Z,11.300659
2023-02-19T10:27:34.571Z,11.361084
2023-02-19T10:28:43.242Z,11.411438
2023-02-19T10:29:52.895Z,11.602783
2023-02-19T10:31:01.589Z,11.632996
2023-02-19T10:32:09.275Z,11.753845
2023-02-19T10:33:18.896Z,11.723633
2023-02-19T10:34:27.684Z,11.914978
2023-02-19T10:35:37.291Z,12.015686
2023-02-19T10:36:46.965Z,12.096252
2023-02-19T10:37:56.632Z,12.116394
2023-02-19T10:39:06.352Z,12.176819
2023-02-19T10:40:16.015Z,12.307739
2023-02-19T10:41:23.685Z,12.44873
2023-02-19T10:42:33.381Z,12.549438
2023-02-19T10:43:42.049Z,12.428589
2023-02-19T10:44:51.751Z,12.499084
2023-02-19T10:46:01.400Z,12.539368
2023-02-19T10:47:10.082Z,12.750854
2023-02-19T10:48:19.753Z,13.032837
2023-02-19T10:49:28.413Z,12.932129
2023-02-19T10:50:38.061Z,13.083191
2023-02-19T10:51:47.781Z,13.052979
2023-02-19T10:52:55.420Z,12.952271
2023-02-19T10:54:03.064Z,12.861633
2023-02-19T10:55:12.765Z,12.952271
2023-02-19T10:56:20.437Z,13.083191
2023-02-19T10:57:30.172Z,13.284607
2023-02-19T10:58:38.776Z,13.455811
2023-02-19T10:59:47.465Z,13.496094
2023-02-19T11:00:57.135Z,13.304749
2023-02-19T11:02:05.782Z,13.334961
2023-02-19T11:03:15.465Z,13.113403
2023-02-19T11:04:25.272Z,13.113403
2023-02-19T11:05:33.787Z,13.183899
2023-02-19T11:06:43.454Z,13.19397
2023-02-19T11:07:52.274Z,12.9422
2023-02-19T11:09:00.044Z,12.901917
2023-02-19T11:10:09.691Z,12.861633
2023-02-19T11:11:17.405Z,12.82135
2023-02-19T11:12:27.050Z,12.82135
2023-02-19T11:13:36.743Z,12.791138
2023-02-19T11:14:46.419Z,12.791138
2023-02-19T11:15:56.235Z,12.539368
2023-02-19T11:17:04.901Z,12.418518
2023-02-19T11:18:13.598Z,12.388306
2023-02-19T11:19:23.264Z,12.307739
2023-02-19T11:20:30.932Z,12.19696
2023-02-19T11:21:40.580Z,12.126465
2023-02-19T11:22:50.257Z,12.086182
2023-02-19T11:23:57.980Z,11.995544
2023-02-19T11:25:07.641Z,11.93512
2023-02-19T11:26:16.339Z,11.904907
2023-02-19T11:27:24.013Z,11.904907
2023-02-19T11:28:33.768Z,11.904907
2023-02-19T11:29:42.446Z,11.874695
2023-02-19T11:30:51.097Z,11.784058
2023-02-19T11:32:00.819Z,11.753845
2023-02-19T11:33:09.446Z,11.69342
2023-02-19T11:34:19.114Z,11.69342
2023-02-19T11:35:27.773Z,11.703491
2023-02-19T11:36:36.427Z,11.733704
2023-02-19T11:37:46.152Z,11.753845
2023-02-19T11:38:55.079Z,11.753845
2023-02-19T11:40:03.736Z,11.733704
2023-02-19T11:41:13.640Z,11.773987
2023-02-19T11:42:21.049Z,11.723633
2023-02-19T11:43:30.787Z,11.733704
2023-02-19T11:44:39.456Z,11.703491
2023-02-19T11:45:47.131Z,11.69342
2023-02-19T11:46:56.780Z,11.733704
2023-02-19T11:48:04.433Z,11.804199
2023-02-19T11:49:13.122Z,11.844482
2023-02-19T11:50:22.812Z,11.864624
2023-02-19T11:51:32.583Z,11.844482
2023-02-19T11:52:42.250Z,11.81427
2023-02-19T11:53:51.928Z,11.784058
2023-02-19T11:55:01.609Z,11.733704
2023-02-19T11:56:11.327Z,11.733704
2023-02-19T11:57:27.072Z,11.68335
2023-02-19T11:58:36.810Z,11.471863
2023-02-19T11:59:46.461Z,11.270447
2023-02-19T12:00:54.157Z,11.038818
2023-02-19T12:02:03.841Z,10.887756
2023-02-19T12:03:12.582Z,10.756836
2023-02-19T12:04:20.227Z,10.68634
2023-02-19T12:05:29.955Z,10.605774
2023-02-19T12:06:39.610Z,10.68634
2023-02-19T12:07:48.320Z,10.756836
2023-02-19T12:08:58.072Z,10.867615
2023-02-19T12:10:06.750Z,10.917969
2023-02-19T12:11:16.463Z,10.998535
2023-02-19T12:12:26.239Z,11.099243
2023-02-19T12:13:33.948Z,11.18988
2023-02-19T12:14:43.704Z,11.300659
2023-02-19T12:15:52.477Z,11.451721
2023-02-19T12:17:01.195Z,11.502075
2023-02-19T12:18:10.994Z,11.451721
2023-02-19T12:19:18.663Z,11.401367
2023-02-19T12:20:30.108Z,11.411438
2023-02-19T12:21:38.040Z,11.522217
2023-02-19T12:22:47.733Z,11.68335
2023-02-19T12:23:57.548Z,12.146606
2023-02-19T12:25:05.339Z,12.358093
2023-02-19T12:26:14.003Z,12.307739
2023-02-19T12:27:22.692Z,12.277527
2023-02-19T12:28:31.581Z,12.247314
2023-02-19T12:29:41.208Z,12.217102
2023-02-19T12:30:49.890Z,12.207031
2023-02-19T12:31:59.642Z,12.237244
2023-02-19T12:33:09.308Z,12.287598
2023-02-19T12:34:17.998Z,12.207031
2023-02-19T12:35:26.684Z,12.176819
2023-02-19T12:36:36.369Z,12.19696
2023-02-19T12:37:44.068Z,12.166748
2023-02-19T12:38:53.763Z,12.096252
2023-02-19T12:40:02.474Z,12.055969
2023-02-19T12:41:10.122Z,12.126465
2023-02-19T12:42:19.833Z,12.166748
2023-02-19T12:43:27.513Z,12.237244
2023-02-19T12:44:36.227Z,12.267456
2023-02-19T12:45:45.972Z,12.307739
2023-02-19T12:46:53.618Z,12.277527
2023-02-19T12:48:03.277Z,12.207031
2023-02-19T12:49:11.959Z,12.116394
2023-02-19T12:50:20.627Z,11.985474
2023-02-19T12:51:30.342Z,11.864624
2023-02-19T12:52:39.015Z,11.69342
2023-02-19T12:53:47.730Z,11.502075
2023-02-19T12:54:57.460Z,11.320801
2023-02-19T12:56:07.109Z,11.139526
2023-02-19T12:57:16.801Z,10.998535
2023-02-19T12:58:26.548Z,10.857544
2023-02-19T12:59:34.249Z,10.736694
2023-02-19T13:00:43.926Z,10.67627
2023-02-19T13:01:52.581Z,10.68634
2023-02-19T13:03:02.409Z,10.666199
2023-02-19T13:04:12.123Z,10.68634
2023-02-19T13:05:20.861Z,10.756836
2023-02-19T13:06:30.550Z,10.787048
2023-02-19T13:07:39.236Z,10.756836
2023-02-19T13:09:05.189Z,10.787048
2023-02-19T13:09:58.616Z,10.787048
2023-02-19T13:11:08.468Z,10.80719
2023-02-19T13:12:17.357Z,10.867615
2023-02-19T13:13:26.822Z,10.92804
2023-02-19T13:14:35.564Z,10.988464
2023-02-19T13:15:45.287Z,11.038818
2023-02-19T13:16:54.001Z,11.069031
2023-02-19T13:18:02.633Z,11.048889
2023-02-19T13:19:12.360Z,11.018677